Time;durP1;ratioP1;P1;durP2;ratioP2;P2;SDS_P1;SDS_P2;PMS_P1;PMS_P2;Temp;Humidity;BMP_temperature;BMP_pressure;BME280_temperature;BME280_humidity;BME280_pressure;Samples;Min_cycle;Max_cycle;Signal;HPM_P1;HPM_P2
2023/09/27 00:02:15;;;;;;;0.00;0.00;;;;;;;;;;4986527;28;20499;-86
2023/09/27 00:04:41;;;;;;;0.00;0.00;;;;;;;;;;4968288;28;20038;-86
2023/09/27 00:07:07;;;;;;;0.00;0.00;;;;;;;;;;5003778;28;20069;-87
2023/09/27 00:09:33;;;;;;;0.00;0.00;;;;;;;;;;5010711;28;20030;-88
2023/09/27 00:12:03;;;;;;;0.00;0.00;;;;;;;;;;4994588;28;20030;-87
2023/09/27 00:14:29;;;;;;;0.00;0.00;;;;;;;;;;5005488;28;20026;-88
2023/09/27 00:16:54;;;;;;;0.00;0.00;;;;;;;;;;5002310;28;20041;-87
2023/09/27 00:19:20;;;;;;;0.00;0.00;;;;;;;;;;5000217;28;20042;-88
2023/09/27 00:21:45;;;;;;;0.00;0.00;;;;;;;;;;5007071;28;20049;-87
2023/09/27 00:24:11;;;;;;;0.00;0.00;;;;;;;;;;4990998;28;20161;-87
2023/09/27 00:26:36;;;;;;;0.30;0.00;;;;;;;;;;4951211;28;20049;-87
2023/09/27 00:29:02;;;;;;;0.00;0.00;;;;;;;;;;5004740;28;20030;-87
2023/09/27 00:31:28;;;;;;;0.00;0.00;;;;;;;;;;5013367;28;20019;-87
2023/09/27 00:33:53;;;;;;;0.00;0.00;;;;;;;;;;4987680;28;20061;-87
2023/09/27 00:36:18;;;;;;;0.00;0.00;;;;;;;;;;4982818;28;20113;-87
2023/09/27 00:38:44;;;;;;;0.00;0.00;;;;;;;;;;4999351;28;20399;-87
2023/09/27 00:41:10;;;;;;;0.00;0.00;;;;;;;;;;4986493;28;20034;-87
2023/09/27 00:43:35;;;;;;;0.00;0.00;;;;;;;;;;4988934;28;20355;-86
2023/09/27 00:46:03;;;;;;;0.00;0.00;;;;;;;;;;5000357;28;20043;-86
2023/09/27 00:48:29;;;;;;;0.00;0.00;;;;;;;;;;5003202;28;20064;-88
2023/09/27 00:50:55;;;;;;;0.00;0.00;;;;;;;;;;4986492;28;20049;-86
2023/09/27 00:53:25;;;;;;;0.00;0.00;;;;;;;;;;4972345;28;20058;-87
2023/09/27 00:55:51;;;;;;;0.00;0.00;;;;;;;;;;4992927;28;20056;-87
2023/09/27 00:58:20;;;;;;;0.00;0.00;;;;;;;;;;4991963;28;20458;-87
2023/09/27 01:00:50;;;;;;;0.00;0.00;;;;;;;;;;4999704;28;20422;-87
2023/09/27 01:03:15;;;;;;;0.00;0.00;;;;;;;;;;5003814;28;20034;-86
2023/09/27 01:05:41;;;;;;;0.00;0.00;;;;;;;;;;4994209;28;20069;-87
2023/09/27 01:08:07;;;;;;;0.00;0.00;;;;;;;;;;4984243;28;20061;-88
2023/09/27 01:10:32;;;;;;;0.00;0.00;;;;;;;;;;4986209;28;20432;-87
2023/09/27 01:12:58;;;;;;;0.00;0.00;;;;;;;;;;5002485;28;20074;-86
2023/09/27 01:15:23;;;;;;;0.00;0.00;;;;;;;;;;5006509;28;20388;-87
2023/09/27 01:17:53;;;;;;;0.00;0.00;;;;;;;;;;5017898;28;20026;-87
2023/09/27 01:20:19;;;;;;;0.00;0.00;;;;;;;;;;4985268;28;20482;-87
2023/09/27 01:23:00;;;;;;;0.00;0.00;;;;;;;;;;5003168;28;20030;-86
2023/09/27 01:25:30;;;;;;;0.00;0.00;;;;;;;;;;5004862;28;20065;-88
2023/09/27 01:28:06;;;;;;;0.00;0.00;;;;;;;;;;4999270;28;20026;-87
2023/09/27 01:30:32;;;;;;;0.00;0.00;;;;;;;;;;4999883;28;20035;-87
2023/09/27 01:33:05;;;;;;;0.00;0.00;;;;;;;;;;5007419;28;20034;-87
2023/09/27 01:35:34;;;;;;;0.00;0.00;;;;;;;;;;5001374;28;20029;-87
2023/09/27 01:38:00;;;;;;;0.00;0.00;;;;;;;;;;4999512;28;20030;-88
2023/09/27 01:40:30;;;;;;;0.00;0.00;;;;;;;;;;4982570;28;20033;-86
2023/09/27 01:43:01;;;;;;;;;;;;;;;;;;5002481;28;20042;-87
2023/09/27 01:45:32;;;;;;;0.00;0.00;;;;;;;;;;4999758;28;19921;-88
2023/09/27 01:47:59;;;;;;;0.00;0.00;;;;;;;;;;4997679;28;20057;-87
2023/09/27 01:50:25;;;;;;;0.00;0.00;;;;;;;;;;4998820;28;20035;-88
2023/09/27 01:52:54;;;;;;;0.00;0.00;;;;;;;;;;4946375;28;20123;-87
2023/09/27 01:55:20;;;;;;;0.00;0.00;;;;;;;;;;4963723;28;20035;-87
2023/09/27 01:57:45;;;;;;;0.00;0.00;;;;;;;;;;4965031;28;20054;-86
2023/09/27 02:00:14;;;;;;;0.00;0.00;;;;;;;;;;4981419;28;20520;-87
2023/09/27 02:02:58;;;;;;;0.00;0.00;;;;;;;;;;4946866;28;20121;-86
2023/09/27 02:05:24;;;;;;;0.00;0.00;;;;;;;;;;4963964;28;20073;-87
2023/09/27 02:07:49;;;;;;;0.00;0.00;;;;;;;;;;4963440;28;20081;-88
2023/09/27 02:10:15;;;;;;;0.00;0.00;;;;;;;;;;4952276;28;20032;-86
2023/09/27 02:12:40;;;;;;;0.00;0.00;;;;;;;;;;4969949;28;20039;-87
2023/09/27 02:15:10;;;;;;;0.00;0.00;;;;;;;;;;4963234;28;20027;-87
2023/09/27 02:17:36;;;;;;;0.00;0.00;;;;;;;;;;4980881;28;20404;-87
2023/09/27 02:20:07;;;;;;;0.15;0.00;;;;;;;;;;4981961;28;20073;-87
2023/09/27 02:22:34;;;;;;;0.00;0.00;;;;;;;;;;4947531;28;20361;-87
2023/09/27 02:24:59;;;;;;;0.00;0.00;;;;;;;;;;4961819;28;20027;-87
2023/09/27 02:27:25;;;;;;;0.00;0.00;;;;;;;;;;4945682;28;20094;-88
2023/09/27 02:29:50;;;;;;;0.00;0.00;;;;;;;;;;4980840;28;20046;-87
2023/09/27 02:32:17;;;;;;;0.00;0.00;;;;;;;;;;4989301;28;20030;-87
2023/09/27 02:34:44;;;;;;;0.00;0.00;;;;;;;;;;4980008;28;20045;-87
2023/09/27 02:37:10;;;;;;;0.00;0.00;;;;;;;;;;4975690;28;20082;-86
2023/09/27 02:39:35;;;;;;;0.10;0.00;;;;;;;;;;4979345;28;20034;-86
2023/09/27 02:42:01;;;;;;;0.00;0.00;;;;;;;;;;4982065;28;20046;-85
2023/09/27 02:44:27;;;;;;;0.00;0.00;;;;;;;;;;4981925;28;20034;-87
2023/09/27 02:46:53;;;;;;;0.00;0.00;;;;;;;;;;4965008;28;20019;-86
2023/09/27 02:49:19;;;;;;;0.00;0.00;;;;;;;;;;4961065;28;20058;-87
2023/09/27 02:51:47;;;;;;;0.10;0.00;;;;;;;;;;5014770;28;20364;-88
2023/09/27 02:54:16;;;;;;;0.00;0.00;;;;;;;;;;5000017;28;20357;-86
2023/09/27 02:56:44;;;;;;;0.00;0.00;;;;;;;;;;5001446;28;20035;-88
2023/09/27 02:59:11;;;;;;;0.00;0.00;;;;;;;;;;4986169;28;20042;-87
2023/09/27 03:01:43;;;;;;;0.05;0.00;;;;;;;;;;5001172;28;20033;-86
2023/09/27 03:04:10;;;;;;;0.00;0.00;;;;;;;;;;4968451;28;20034;-87
2023/09/27 03:06:37;;;;;;;0.00;0.00;;;;;;;;;;4999155;28;20034;-86
2023/09/27 03:09:03;;;;;;;0.00;0.00;;;;;;;;;;4982668;28;20408;-86
2023/09/27 03:11:29;;;;;;;0.00;0.00;;;;;;;;;;4972245;28;20029;-86
2023/09/27 03:13:55;;;;;;;0.00;0.00;;;;;;;;;;5001922;28;20018;-86
2023/09/27 03:16:20;;;;;;;0.00;0.00;;;;;;;;;;4966881;28;20100;-87
2023/09/27 03:18:46;;;;;;;0.00;0.00;;;;;;;;;;5006595;28;20030;-87
2023/09/27 03:21:12;;;;;;;0.00;0.00;;;;;;;;;;4983357;28;20470;-87
2023/09/27 03:23:37;;;;;;;0.00;0.00;;;;;;;;;;5001093;28;20457;-86
2023/09/27 03:26:04;;;;;;;0.00;0.00;;;;;;;;;;5016447;28;20503;-86
2023/09/27 03:28:30;;;;;;;0.00;0.00;;;;;;;;;;5000243;28;20034;-87
2023/09/27 03:30:55;;;;;;;0.00;0.00;;;;;;;;;;4998981;28;20034;-87
2023/09/27 03:33:21;;;;;;;0.00;0.00;;;;;;;;;;5005311;28;20015;-86
2023/09/27 03:35:47;;;;;;;0.00;0.00;;;;;;;;;;5031733;28;20049;-86
2023/09/27 03:38:12;;;;;;;0.00;0.00;;;;;;;;;;4970203;28;20035;-86
2023/09/27 03:40:39;;;;;;;0.00;0.00;;;;;;;;;;5011544;28;20046;-86
2023/09/27 03:43:05;;;;;;;0.00;0.00;;;;;;;;;;5014595;28;20536;-87
2023/09/27 03:45:33;;;;;;;0.00;0.00;;;;;;;;;;4981305;28;20069;-86
2023/09/27 03:47:58;;;;;;;0.00;0.00;;;;;;;;;;4997900;28;20078;-87
2023/09/27 03:50:23;;;;;;;0.00;0.00;;;;;;;;;;4998423;28;20371;-87
2023/09/27 03:52:49;;;;;;;0.00;0.00;;;;;;;;;;4981128;28;20048;-87
2023/09/27 03:55:14;;;;;;;0.00;0.00;;;;;;;;;;4996831;28;20038;-86
2023/09/27 03:57:40;;;;;;;0.00;0.00;;;;;;;;;;4981914;28;20444;-86
2023/09/27 04:00:17;;;;;;;0.00;0.00;;;;;;;;;;4999092;28;20053;-86
2023/09/27 04:02:43;;;;;;;0.00;0.00;;;;;;;;;;4996441;28;20077;-87
2023/09/27 04:05:09;;;;;;;0.00;0.00;;;;;;;;;;4998523;28;20436;-87
2023/09/27 04:07:35;;;;;;;0.00;0.00;;;;;;;;;;4997742;28;20072;-86
2023/09/27 04:10:02;;;;;;;0.00;0.00;;;;;;;;;;4979819;28;20042;-88
2023/09/27 04:12:28;;;;;;;0.00;0.00;;;;;;;;;;4962176;28;20030;-86
2023/09/27 04:14:53;;;;;;;0.00;0.00;;;;;;;;;;4997841;28;20031;-87
2023/09/27 04:17:19;;;;;;;0.00;0.00;;;;;;;;;;4966662;28;20037;-86
2023/09/27 04:19:45;;;;;;;0.00;0.00;;;;;;;;;;4983833;28;20030;-86
2023/09/27 04:22:10;;;;;;;0.00;0.00;;;;;;;;;;4963914;28;20034;-87
2023/09/27 04:24:36;;;;;;;0.00;0.00;;;;;;;;;;5010682;28;20455;-87
2023/09/27 04:27:03;;;;;;;0.00;0.00;;;;;;;;;;5006142;28;20030;-88
2023/09/27 04:29:29;;;;;;;0.00;0.00;;;;;;;;;;4996981;28;20463;-77
2023/09/27 04:31:55;;;;;;;0.00;0.00;;;;;;;;;;4996223;28;20029;-78
2023/09/27 04:34:20;;;;;;;0.00;0.00;;;;;;;;;;4978903;28;20026;-76
2023/09/27 04:36:46;;;;;;;0.00;0.00;;;;;;;;;;4996694;28;20026;-76
2023/09/27 04:39:13;;;;;;;0.00;0.00;;;;;;;;;;4996319;28;20027;-76
2023/09/27 04:41:39;;;;;;;0.00;0.00;;;;;;;;;;4995033;28;20088;-76
2023/09/27 04:44:05;;;;;;;0.00;0.00;;;;;;;;;;4997742;28;20121;-76
2023/09/27 04:46:32;;;;;;;0.00;0.00;;;;;;;;;;4996404;28;20038;-77
2023/09/27 04:48:58;;;;;;;0.00;0.00;;;;;;;;;;4980062;28;20058;-76
2023/09/27 04:51:24;;;;;;;0.00;0.00;;;;;;;;;;5006006;28;20035;-76
2023/09/27 04:53:49;;;;;;;0.00;0.00;;;;;;;;;;4966179;28;20061;-76
2023/09/27 04:56:15;;;;;;;0.00;0.00;;;;;;;;;;4974455;28;20385;-78
2023/09/27 04:58:43;;;;;;;0.00;0.00;;;;;;;;;;4976432;28;20030;-76
2023/09/27 05:01:09;;;;;;;0.00;0.00;;;;;;;;;;4985542;28;20042;-76
2023/09/27 05:03:39;;;;;;;0.00;0.00;;;;;;;;;;4988227;28;20046;-77
2023/09/27 05:06:05;;;;;;;0.00;0.00;;;;;;;;;;4968274;28;20046;-76
2023/09/27 05:08:30;;;;;;;0.17;0.00;;;;;;;;;;4986780;28;20047;-78
2023/09/27 05:11:22;;;;;;;0.00;0.00;;;;;;;;;;4992693;28;20088;-77
2023/09/27 05:13:48;;;;;;;0.00;0.00;;;;;;;;;;4994251;28;20132;-77
2023/09/27 05:16:13;;;;;;;0.00;0.00;;;;;;;;;;4955525;28;20111;-79
2023/09/27 05:18:40;;;;;;;0.00;0.00;;;;;;;;;;4976606;28;20034;-77
2023/09/27 05:21:06;;;;;;;0.00;0.00;;;;;;;;;;4991843;28;20023;-78
2023/09/27 05:23:32;;;;;;;0.00;0.00;;;;;;;;;;4977568;28;20057;-79
2023/09/27 05:25:57;;;;;;;0.00;0.00;;;;;;;;;;4967272;28;20030;-77
2023/09/27 05:28:23;;;;;;;0.00;0.00;;;;;;;;;;5000110;28;20042;-76
2023/09/27 05:30:49;;;;;;;0.00;0.00;;;;;;;;;;4970044;28;20061;-77
2023/09/27 05:33:14;;;;;;;0.00;0.00;;;;;;;;;;4992560;28;20124;-75
2023/09/27 05:35:40;;;;;;;0.00;0.00;;;;;;;;;;4991362;28;20026;-77
2023/09/27 05:38:06;;;;;;;0.00;0.00;;;;;;;;;;4991248;28;20370;-75
2023/09/27 05:40:31;;;;;;;0.00;0.00;;;;;;;;;;4987928;28;20050;-77
2023/09/27 05:42:57;;;;;;;0.00;0.00;;;;;;;;;;4991912;28;20034;-74
2023/09/27 05:45:54;;;;;;;0.00;0.00;;;;;;;;;;4986921;28;20052;-77
2023/09/27 05:48:19;;;;;;;0.00;0.00;;;;;;;;;;4964421;28;20050;-80
2023/09/27 05:50:51;;;;;;;0.00;0.00;;;;;;;;;;4962333;28;20023;-81
2023/09/27 05:53:17;;;;;;;0.00;0.00;;;;;;;;;;4980467;28;20042;-77
2023/09/27 05:55:44;;;;;;;0.00;0.00;;;;;;;;;;4961871;28;20039;-76
2023/09/27 05:58:10;;;;;;;0.00;0.00;;;;;;;;;;4963195;28;20042;-77
2023/09/27 06:00:46;;;;;;;0.22;0.00;;;;;;;;;;4978148;28;20047;-77
2023/09/27 06:03:12;;;;;;;0.00;0.00;;;;;;;;;;4972436;28;20443;-79
2023/09/27 06:05:37;;;;;;;0.00;0.00;;;;;;;;;;4969434;28;20030;-78
2023/09/27 06:08:03;;;;;;;0.00;0.00;;;;;;;;;;4967930;28;20488;-76
2023/09/27 06:10:29;;;;;;;0.00;0.00;;;;;;;;;;4969789;28;20034;-78
2023/09/27 06:12:54;;;;;;;0.00;0.00;;;;;;;;;;4968040;28;20408;-76
2023/09/27 06:15:20;;;;;;;0.00;0.00;;;;;;;;;;4966113;28;20227;-78
2023/09/27 06:17:48;;;;;;;0.00;0.00;;;;;;;;;;4967413;28;20089;-76
2023/09/27 06:20:41;;;;;;;0.00;0.00;;;;;;;;;;4984578;28;20046;-77
2023/09/27 06:23:09;;;;;;;0.00;0.00;;;;;;;;;;4963043;28;20045;-77
2023/09/27 06:25:39;;;;;;;0.00;0.00;;;;;;;;;;4953701;28;20476;-75
2023/09/27 06:28:05;;;;;;;0.00;0.00;;;;;;;;;;4968778;28;20185;-76
2023/09/27 06:30:30;;;;;;;0.00;0.00;;;;;;;;;;4971846;28;20576;-75
2023/09/27 06:32:56;;;;;;;0.00;0.00;;;;;;;;;;4975804;28;20026;-77
2023/09/27 06:35:21;;;;;;;0.00;0.00;;;;;;;;;;4975671;28;20062;-78
2023/09/27 06:37:50;;;;;;;0.00;0.00;;;;;;;;;;4977523;28;20042;-78
2023/09/27 06:40:17;;;;;;;0.00;0.00;;;;;;;;;;4972686;28;20041;-78
2023/09/27 06:42:46;;;;;;;0.00;0.00;;;;;;;;;;4983828;28;20027;-78
2023/09/27 06:45:13;;;;;;;0.00;0.00;;;;;;;;;;4988717;28;20121;-78
2023/09/27 06:47:44;;;;;;;0.00;0.00;;;;;;;;;;4972664;28;20035;-77
2023/09/27 06:50:12;;;;;;;0.00;0.00;;;;;;;;;;4987261;28;20436;-77
2023/09/27 06:52:47;;;;;;;0.00;0.00;;;;;;;;;;4987031;28;20034;-77
2023/09/27 06:55:19;;;;;;;0.00;0.00;;;;;;;;;;4984439;28;20053;-76
2023/09/27 06:57:49;;;;;;;0.00;0.00;;;;;;;;;;4993749;28;20030;-77
2023/09/27 07:00:18;;;;;;;0.00;0.00;;;;;;;;;;4964062;28;20617;-75
2023/09/27 07:02:46;;;;;;;0.00;0.00;;;;;;;;;;4978611;28;20026;-77
2023/09/27 07:05:11;;;;;;;0.00;0.00;;;;;;;;;;4955642;28;20468;-75
2023/09/27 07:07:38;;;;;;;0.00;0.00;;;;;;;;;;4982650;28;20030;-78
2023/09/27 07:10:04;;;;;;;0.00;0.00;;;;;;;;;;4967260;28;20034;-77
2023/09/27 07:12:30;;;;;;;0.00;0.00;;;;;;;;;;4983619;28;20571;-76
2023/09/27 07:15:10;;;;;;;0.00;0.00;;;;;;;;;;4992203;28;20165;-76
2023/09/27 07:17:38;;;;;;;0.00;0.00;;;;;;;;;;4970524;28;20029;-78
2023/09/27 07:22:46;;;;;;;0.00;0.00;;;;;;;;;;4989212;28;20018;-78
2023/09/27 07:28:17;;;;;;;0.00;0.00;;;;;;;;;;4990293;23;20468;-77
2023/09/27 07:30:45;;;;;;;0.00;0.00;;;;;;;;;;4946486;28;20055;-78
2023/09/27 07:33:11;;;;;;;0.00;0.00;;;;;;;;;;4942959;28;20054;-78
2023/09/27 07:35:42;;;;;;;0.00;0.00;;;;;;;;;;4941599;29;20085;-77
2023/09/27 07:38:09;;;;;;;0.00;0.00;;;;;;;;;;4968849;28;20042;-77
2023/09/27 07:40:35;;;;;;;0.00;0.00;;;;;;;;;;4972728;28;20039;-77
2023/09/27 07:43:00;;;;;;;0.00;0.00;;;;;;;;;;4973229;28;20043;-78
2023/09/27 07:45:30;;;;;;;0.00;0.00;;;;;;;;;;4975025;28;20027;-77
2023/09/27 07:47:55;;;;;;;0.00;0.00;;;;;;;;;;4971439;28;20114;-78
2023/09/27 07:50:26;;;;;;;0.00;0.00;;;;;;;;;;4972903;28;20527;-78
2023/09/27 07:52:53;;;;;;;0.00;0.00;;;;;;;;;;4944107;29;20031;-78
2023/09/27 07:55:21;;;;;;;0.00;0.00;;;;;;;;;;4953450;28;20047;-75
2023/09/27 07:57:46;;;;;;;0.00;0.00;;;;;;;;;;4951723;28;20461;-78
2023/09/27 08:00:16;;;;;;;0.00;0.00;;;;;;;;;;4954295;28;20035;-76
2023/09/27 08:02:43;;;;;;;0.00;0.00;;;;;;;;;;4953848;28;20477;-77
2023/09/27 08:08:41;;;;;;;0.00;0.00;;;;;;;;;;4969155;28;20077;-78
2023/09/27 08:11:39;;;;;;;0.00;0.00;;;;;;;;;;4958079;29;20043;-77
2023/09/27 08:14:05;;;;;;;0.00;0.00;;;;;;;;;;4958492;28;20043;-76
2023/09/27 08:16:31;;;;;;;0.00;0.00;;;;;;;;;;4968970;28;20138;-77
2023/09/27 08:18:56;;;;;;;0.00;0.00;;;;;;;;;;4969529;28;20121;-78
2023/09/27 08:21:23;;;;;;;0.00;0.00;;;;;;;;;;4973461;28;20047;-78
2023/09/27 08:23:52;;;;;;;0.30;0.00;;;;;;;;;;4971297;28;20108;-78
2023/09/27 08:26:18;;;;;;;;;;;;;;;;;;4954594;28;20112;-79
2023/09/27 08:28:43;;;;;;;0.00;0.00;;;;;;;;;;4970680;28;20308;-78
2023/09/27 08:31:09;;;;;;;0.00;0.00;;;;;;;;;;4972694;28;20049;-78
2023/09/27 08:33:35;;;;;;;0.00;0.00;;;;;;;;;;4972988;28;20452;-75
2023/09/27 08:36:00;;;;;;;0.00;0.00;;;;;;;;;;4957698;28;20089;-77
2023/09/27 08:38:26;;;;;;;0.00;0.00;;;;;;;;;;4970813;28;20126;-77
2023/09/27 08:40:52;;;;;;;0.00;0.00;;;;;;;;;;4951848;28;20092;-78
2023/09/27 08:43:17;;;;;;;0.00;0.00;;;;;;;;;;4968605;28;20031;-76
2023/09/27 08:45:46;;;;;;;0.00;0.00;;;;;;;;;;4968788;28;20043;-75
2023/09/27 08:48:16;;;;;;;0.00;0.00;;;;;;;;;;4982971;28;20133;-76
2023/09/27 08:50:42;;;;;;;0.00;0.00;;;;;;;;;;4953408;28;20042;-78
2023/09/27 08:53:08;;;;;;;0.00;0.00;;;;;;;;;;4971915;28;20046;-78
2023/09/27 08:55:35;;;;;;;0.00;0.00;;;;;;;;;;4964326;28;20042;-74
2023/09/27 08:58:02;;;;;;;0.00;0.00;;;;;;;;;;4939174;28;20077;-76
2023/09/27 09:00:28;;;;;;;0.00;0.00;;;;;;;;;;4960098;28;20073;-76
2023/09/27 09:02:57;;;;;;;0.00;0.00;;;;;;;;;;4951759;28;20058;-80
2023/09/27 09:05:27;;;;;;;0.00;0.00;;;;;;;;;;4971488;28;20050;-77
2023/09/27 09:07:55;;;;;;;;;;;;;;;;;;4964343;28;20038;-76
2023/09/27 09:10:56;;;;;;;0.00;0.00;;;;;;;;;;4963787;28;19919;-78
2023/09/27 09:13:25;;;;;;;0.00;0.00;;;;;;;;;;4974552;28;20532;-81
2023/09/27 09:19:24;;;;;;;0.00;0.00;;;;;;;;;;4998011;23;20047;-76
2023/09/27 09:22:23;;;;;;;0.00;0.00;;;;;;;;;;4993711;28;20030;-76
2023/09/27 09:24:50;;;;;;;0.00;0.00;;;;;;;;;;4942092;28;20040;-79
2023/09/27 09:27:16;;;;;;;0.00;0.00;;;;;;;;;;4945905;28;20346;-77
2023/09/27 09:29:48;;;;;;;0.00;0.00;;;;;;;;;;4985908;28;20031;-75
2023/09/27 09:32:21;;;;;;;0.00;0.00;;;;;;;;;;4983131;28;20053;-77
2023/09/27 09:34:51;;;;;;;0.00;0.00;;;;;;;;;;4975566;28;20122;-76
2023/09/27 09:37:28;;;;;;;0.00;0.00;;;;;;;;;;4992287;28;20120;-78
2023/09/27 09:40:05;;;;;;;0.00;0.00;;;;;;;;;;4998945;28;20490;-77
2023/09/27 09:42:32;;;;;;;0.00;0.00;;;;;;;;;;4991389;28;20033;-76
2023/09/27 09:45:07;;;;;;;0.00;0.00;;;;;;;;;;4986863;28;20046;-76
2023/09/27 09:47:35;;;;;;;0.00;0.00;;;;;;;;;;4974439;28;20077;-74
2023/09/27 09:50:06;;;;;;;0.00;0.00;;;;;;;;;;4978253;28;20038;-78
2023/09/27 09:52:35;;;;;;;0.00;0.00;;;;;;;;;;4995551;28;20030;-75
2023/09/27 09:55:02;;;;;;;0.00;0.00;;;;;;;;;;4973104;28;20034;-78
2023/09/27 09:57:32;;;;;;;0.00;0.00;;;;;;;;;;5005862;28;20023;-75
2023/09/27 10:00:12;;;;;;;0.00;0.00;;;;;;;;;;4976230;28;20056;-78
2023/09/27 10:02:49;;;;;;;0.00;0.00;;;;;;;;;;4991353;28;20032;-75
2023/09/27 10:05:19;;;;;;;0.00;0.00;;;;;;;;;;4991652;28;20061;-75
2023/09/27 10:11:04;;;;;;;0.00;0.00;;;;;;;;;;5097160;23;20073;-76
2023/09/27 10:13:32;;;;;;;0.00;0.00;;;;;;;;;;5003535;28;20038;-76
2023/09/27 10:15:58;;;;;;;0.00;0.00;;;;;;;;;;5008785;28;20084;-77
2023/09/27 10:18:24;;;;;;;0.00;0.00;;;;;;;;;;5025470;28;20038;-76
2023/09/27 10:21:05;;;;;;;0.00;0.00;;;;;;;;;;5018172;28;20056;-77
2023/09/27 10:26:59;;;;;;;0.00;0.00;;;;;;;;;;5031521;23;20073;-88
2023/09/27 10:29:26;;;;;;;0.00;0.00;;;;;;;;;;4999028;28;20149;-88
2023/09/27 10:31:58;;;;;;;0.00;0.00;;;;;;;;;;5011161;28;20023;-87
2023/09/27 10:34:32;;;;;;;0.00;0.00;;;;;;;;;;5002150;28;20010;-86
2023/09/27 10:36:59;;;;;;;0.00;0.00;;;;;;;;;;4994628;28;20132;-87
2023/09/27 10:39:25;;;;;;;0.00;0.00;;;;;;;;;;4981169;28;20038;-88
2023/09/27 10:41:52;;;;;;;0.00;0.00;;;;;;;;;;5002819;28;20034;-88
2023/09/27 10:44:33;;;;;;;0.00;0.00;;;;;;;;;;4970860;28;20045;-87
2023/09/27 10:47:03;;;;;;;0.00;0.00;;;;;;;;;;4985109;28;20447;-88
2023/09/27 10:49:38;;;;;;;0.00;0.00;;;;;;;;;;4983342;28;20022;-90
2023/09/27 10:52:21;;;;;;;0.00;0.00;;;;;;;;;;4979981;28;20062;-88
2023/09/27 10:54:47;;;;;;;0.00;0.00;;;;;;;;;;4985538;28;20046;-91
2023/09/27 10:57:13;;;;;;;0.00;0.00;;;;;;;;;;5002154;28;20125;-93
2023/09/27 10:59:39;;;;;;;0.00;0.00;;;;;;;;;;4999568;28;20203;-89
2023/09/27 11:02:06;;;;;;;0.00;0.00;;;;;;;;;;4997900;28;20121;-92
2023/09/27 11:04:32;;;;;;;0.00;0.00;;;;;;;;;;4995220;28;20026;-88
2023/09/27 11:06:58;;;;;;;0.00;0.00;;;;;;;;;;5000690;28;20042;-92
2023/09/27 11:09:24;;;;;;;0.00;0.00;;;;;;;;;;5001980;28;20034;-86
2023/09/27 11:11:51;;;;;;;0.00;0.00;;;;;;;;;;4971866;28;20366;-87
2023/09/27 11:14:26;;;;;;;0.00;0.00;;;;;;;;;;4964602;28;20456;-86
2023/09/27 11:16:52;;;;;;;0.00;0.00;;;;;;;;;;5002346;28;20034;-89
2023/09/27 11:19:30;;;;;;;0.00;0.00;;;;;;;;;;4966969;28;20475;-89
2023/09/27 11:21:55;;;;;;;0.00;0.00;;;;;;;;;;4987759;28;20027;-86
2023/09/27 11:24:21;;;;;;;0.00;0.00;;;;;;;;;;5005872;28;20180;-85
2023/09/27 11:26:48;;;;;;;0.00;0.00;;;;;;;;;;5001692;28;20038;-88
2023/09/27 11:29:14;;;;;;;0.00;0.00;;;;;;;;;;5005115;28;20034;-85
2023/09/27 11:31:39;;;;;;;0.00;0.00;;;;;;;;;;4984455;28;20069;-84
2023/09/27 11:34:15;;;;;;;0.00;0.00;;;;;;;;;;4997073;28;20046;-88
2023/09/27 11:36:44;;;;;;;0.00;0.00;;;;;;;;;;4998826;28;20036;-89
2023/09/27 11:39:10;;;;;;;0.00;0.00;;;;;;;;;;4999901;28;20034;-85
2023/09/27 11:41:36;;;;;;;0.00;0.00;;;;;;;;;;4981031;28;20027;-83
2023/09/27 11:44:24;;;;;;;0.00;0.00;;;;;;;;;;4997607;28;20357;-86
2023/09/27 11:47:02;;;;;;;0.00;0.00;;;;;;;;;;4990570;28;20491;-86
2023/09/27 11:49:27;;;;;;;0.00;0.00;;;;;;;;;;4993443;28;20041;-87
2023/09/27 11:51:53;;;;;;;0.00;0.00;;;;;;;;;;5006653;28;20034;-88
2023/09/27 11:54:20;;;;;;;0.00;0.00;;;;;;;;;;5010393;28;20050;-88
2023/09/27 11:56:48;;;;;;;0.00;0.00;;;;;;;;;;4991399;28;20049;-84
2023/09/27 11:59:14;;;;;;;0.00;0.00;;;;;;;;;;5002145;28;20062;-87
2023/09/27 12:01:40;;;;;;;0.00;0.00;;;;;;;;;;5006176;28;20026;-90
2023/09/27 12:04:06;;;;;;;0.00;0.00;;;;;;;;;;5004350;28;20045;-88
2023/09/27 12:06:33;;;;;;;0.00;0.00;;;;;;;;;;4979381;28;20026;-86
2023/09/27 12:08:59;;;;;;;0.00;0.00;;;;;;;;;;4969118;28;20034;-84
2023/09/27 12:11:25;;;;;;;0.00;0.00;;;;;;;;;;5004774;28;20049;-88
2023/09/27 12:13:51;;;;;;;0.00;0.00;;;;;;;;;;5003418;28;20444;-87
2023/09/27 12:16:18;;;;;;;0.00;0.00;;;;;;;;;;4984747;28;20026;-88
2023/09/27 12:18:47;;;;;;;0.00;0.00;;;;;;;;;;4982110;28;20026;-86
2023/09/27 12:21:13;;;;;;;0.00;0.00;;;;;;;;;;4979771;28;20141;-87
2023/09/27 12:23:40;;;;;;;0.00;0.00;;;;;;;;;;4979862;28;20030;-89
2023/09/27 12:26:05;;;;;;;0.00;0.00;;;;;;;;;;4997054;28;20484;-85
2023/09/27 12:28:33;;;;;;;0.00;0.00;;;;;;;;;;5003666;28;20034;-87
2023/09/27 12:30:59;;;;;;;0.00;0.00;;;;;;;;;;5000476;28;20121;-85
2023/09/27 12:33:24;;;;;;;0.00;0.00;;;;;;;;;;4996641;28;20054;-86
2023/09/27 12:35:51;;;;;;;0.00;0.00;;;;;;;;;;4979038;28;20041;-87
2023/09/27 12:38:16;;;;;;;0.00;0.00;;;;;;;;;;4996314;28;20116;-88
2023/09/27 12:40:42;;;;;;;0.00;0.00;;;;;;;;;;4963202;28;20061;-87
2023/09/27 12:43:07;;;;;;;0.00;0.00;;;;;;;;;;4979292;28;20451;-88
2023/09/27 12:45:33;;;;;;;0.00;0.00;;;;;;;;;;4997035;28;20469;-87
2023/09/27 12:47:59;;;;;;;0.00;0.00;;;;;;;;;;4984093;28;20041;-88
2023/09/27 12:50:27;;;;;;;0.00;0.00;;;;;;;;;;4985866;28;20042;-88
2023/09/27 12:52:54;;;;;;;0.00;0.00;;;;;;;;;;4994089;28;20033;-87
2023/09/27 12:55:19;;;;;;;0.00;0.00;;;;;;;;;;4996690;28;20065;-87
2023/09/27 12:57:46;;;;;;;0.00;0.00;;;;;;;;;;4996787;28;20158;-89
2023/09/27 13:00:13;;;;;;;0.00;0.00;;;;;;;;;;4995399;28;20038;-89
2023/09/27 13:02:39;;;;;;;0.00;0.00;;;;;;;;;;4962614;28;20045;-91
2023/09/27 13:05:04;;;;;;;0.00;0.00;;;;;;;;;;4996080;28;20446;-88
2023/09/27 13:07:30;;;;;;;0.00;0.00;;;;;;;;;;4996536;28;20044;-86
2023/09/27 13:09:55;;;;;;;0.00;0.00;;;;;;;;;;4996828;28;20034;-85
2023/09/27 13:12:21;;;;;;;0.00;0.00;;;;;;;;;;4992897;28;20556;-89
2023/09/27 13:14:47;;;;;;;0.00;0.00;;;;;;;;;;4995192;28;20419;-88
2023/09/27 13:17:13;;;;;;;0.00;0.00;;;;;;;;;;4978226;28;20515;-91
2023/09/27 13:19:38;;;;;;;0.00;0.00;;;;;;;;;;5010270;28;20065;-83
2023/09/27 13:22:23;;;;;;;0.00;0.00;;;;;;;;;;4995988;28;20117;-89
2023/09/27 13:24:48;;;;;;;0.00;0.00;;;;;;;;;;4961479;28;20026;-88
2023/09/27 13:27:13;;;;;;;0.00;0.00;;;;;;;;;;4997118;28;20057;-86
2023/09/27 13:29:39;;;;;;;0.00;0.00;;;;;;;;;;5002231;28;20519;-88
2023/09/27 13:32:05;;;;;;;0.00;0.00;;;;;;;;;;4961820;28;20030;-86
2023/09/27 13:34:30;;;;;;;0.00;0.00;;;;;;;;;;4961505;28;20112;-87
2023/09/27 13:36:56;;;;;;;0.00;0.00;;;;;;;;;;4978189;28;20490;-84
2023/09/27 13:39:28;;;;;;;0.00;0.00;;;;;;;;;;4994656;28;20030;-85
2023/09/27 13:41:55;;;;;;;0.00;0.00;;;;;;;;;;4985313;28;20039;-87
2023/09/27 13:44:20;;;;;;;0.00;0.00;;;;;;;;;;4961498;28;20065;-85
2023/09/27 13:46:46;;;;;;;0.00;0.00;;;;;;;;;;4991851;28;20034;-87
2023/09/27 13:49:12;;;;;;;0.00;0.00;;;;;;;;;;4974626;28;20455;-86
2023/09/27 13:51:38;;;;;;;0.00;0.00;;;;;;;;;;4955910;28;20040;-88
2023/09/27 13:54:04;;;;;;;0.00;0.00;;;;;;;;;;4974792;28;20022;-87
2023/09/27 13:56:30;;;;;;;0.00;0.00;;;;;;;;;;4977107;28;20368;-83
2023/09/27 13:58:56;;;;;;;0.00;0.00;;;;;;;;;;4974825;28;20030;-85
2023/09/27 14:01:21;;;;;;;0.00;0.00;;;;;;;;;;4961191;28;20486;-85
2023/09/27 14:03:46;;;;;;;0.00;0.00;;;;;;;;;;4980423;28;20031;-84
2023/09/27 14:06:12;;;;;;;0.00;0.00;;;;;;;;;;4982416;28;20102;-85
2023/09/27 14:08:37;;;;;;;0.00;0.00;;;;;;;;;;4968385;28;20039;-91
2023/09/27 14:11:03;;;;;;;0.00;0.00;;;;;;;;;;4958407;28;20049;-85
2023/09/27 14:13:28;;;;;;;0.00;0.00;;;;;;;;;;4974764;28;20085;-87
2023/09/27 14:15:54;;;;;;;0.00;0.00;;;;;;;;;;4960623;28;20035;-84
2023/09/27 14:18:19;;;;;;;0.00;0.00;;;;;;;;;;4975365;28;20027;-88
2023/09/27 14:20:46;;;;;;;0.00;0.00;;;;;;;;;;4958388;28;20054;-85
2023/09/27 14:23:12;;;;;;;0.00;0.00;;;;;;;;;;4958001;28;20042;-87
2023/09/27 14:25:38;;;;;;;0.00;0.00;;;;;;;;;;4966802;28;20027;-87
2023/09/27 14:28:04;;;;;;;0.00;0.00;;;;;;;;;;5000061;28;20132;-88
2023/09/27 14:30:29;;;;;;;0.00;0.00;;;;;;;;;;4977086;28;20452;-89
2023/09/27 14:32:54;;;;;;;0.00;0.00;;;;;;;;;;4977243;28;20031;-88
2023/09/27 14:35:20;;;;;;;0.00;0.00;;;;;;;;;;4993677;28;20026;-88
2023/09/27 14:37:46;;;;;;;0.00;0.00;;;;;;;;;;4960897;28;20026;-88
2023/09/27 14:40:12;;;;;;;0.00;0.00;;;;;;;;;;4994475;28;20428;-89
2023/09/27 14:42:39;;;;;;;0.00;0.00;;;;;;;;;;4977033;28;20060;-88
2023/09/27 14:45:06;;;;;;;0.00;0.00;;;;;;;;;;5002914;28;20029;-88
2023/09/27 14:47:32;;;;;;;0.10;0.00;;;;;;;;;;4981549;28;20049;-89
2023/09/27 14:49:59;;;;;;;0.00;0.00;;;;;;;;;;4959001;28;20361;-88
2023/09/27 14:52:26;;;;;;;0.00;0.00;;;;;;;;;;4978213;28;20053;-90
2023/09/27 14:54:52;;;;;;;0.00;0.00;;;;;;;;;;4978898;28;20439;-88
2023/09/27 14:57:17;;;;;;;0.00;0.00;;;;;;;;;;4959356;28;20400;-87
2023/09/27 14:59:43;;;;;;;0.00;0.00;;;;;;;;;;4961928;28;20109;-89
2023/09/27 15:02:09;;;;;;;0.00;0.00;;;;;;;;;;4979130;28;20034;-89
2023/09/27 15:04:34;;;;;;;0.00;0.00;;;;;;;;;;4969586;28;20047;-87
2023/09/27 15:07:00;;;;;;;0.00;0.00;;;;;;;;;;4972436;28;20050;-88